Weather at Butler Co Regional Airport - Hogan Field

Public forecast

Using degrees Fahrenheit for public forecast. Weather courtesy of forecast.io.

Current aviation weather report (METAR) for Butler Co Regional Airport - Hogan Field

Retrieved 2021/06/19 01:33 UTC (13 minutes ago):

KHAO 190133Z AUTO 28009G20KT 7SM -TSRA FEW020 SCT037 BKN110 22/19 A2992 RMK AO2 PK WND 26028/0120 WSHFT 0105 LTG DSNT ALQDS RAB0055 P0029 T02170194

Closest aviation forecast (TAF) to Butler Co Regional Airport - Hogan Field

Closest forecast is Cincinnati Municipal Airport Lunken Field, 16.4 nm (30.3 km) SSE. Retrieved 2021-06-19 00:54 UTC (52 minutes ago):

TAF KLUK 182353Z 1900/1924 22014G28KT P6SM VCSH BKN035 FM190100 22012G22KT 3SM -SHRA VCTS OVC050CB TEMPO 1903/1907 2SM TSRA FM190700 23008KT P6SM -SHRA OVC050 FM191000 23010KT 4SM -SHRA VCTS BKN035CB OVC050 TEMPO 1910/1914 2SM TSRA BKN025CB FM191400 21012G22KT P6SM -SHRA BKN035 FM191600 22012G22KT P6SM SCT035 BKN250 FM192300 21013G23KT P6SM -SHRA VCTS BKN050CB